Fabio Alberto Leon Bentley Airport
SKMU : now visible

Airfield :











YOU CAN JOIN US ON...

 
LOGIN :

Register | Disclaimer

   EN    FR    IT 

 









Legend :    VFR   Marginal VFR   IFR   Intensive IFR   Very Intensive IFR
Visi :
Ceiling :
>= 8 km
>= 3000ft
5 to 8 km
1000 to 3000 ft
1500m to 5 km
500 to 1000 ft
800 to 1500m
200 to 500 ft
< 800m
< 200 ft
Symbols :   Thunderstorms  Fog  Heavy snow  Heavy precipitations  Wind > 20 kt






- Airport Elevation : 680 ft
- IATA code : MVP


SKMU - Fabio Alberto Leon Bentley

CURRENT METAR :
  • 182300Z VRB02KT 7000 BKN015 23/22 Q1014 BCFG/S

EXPIRED METARs :
  • 182200Z VRB02KT 5000 BKN015 24/22 Q1014 BCFG/S
  • 182000Z VRB02KT 5000 BKN015 24/22 Q1015 BCFG/S
  • 181900Z VRB02KT 3000 V// 23/22 Q1015 RERA

TAF N/A
SKED FIR / South America



MET'MAP, your aeronautical weather chart ! - Copyright ORBIFLY December 2007 - Disclaimer

ORBIFLY MET'MAP TEAM :

Programming & Development : Alexandra Zaïnal
Original concept : Baudouin d'Aumeries
Technical & hardware support : Manuel Goepfert
Assistance : Marc-Olivier Méhu




SOURCES & CREDITS :

   NOAA       Earth
Advisory